createdAt,value
2022-10-11T00:01:52.451Z,12.62
2022-10-11T00:04:22.369Z,11.72
2022-10-11T00:06:49.610Z,11.08
2022-10-11T00:09:18.133Z,12.00
2022-10-11T00:11:45.177Z,12.51
2022-10-11T00:14:12.107Z,13.18
2022-10-11T00:16:39.078Z,13.47
2022-10-11T00:19:06.165Z,13.44
2022-10-11T00:21:33.157Z,11.99
2022-10-11T00:24:00.232Z,13.39
2022-10-11T00:26:27.592Z,9.85
2022-10-11T00:28:54.503Z,11.64
2022-10-11T00:31:21.750Z,13.32
2022-10-11T00:33:48.760Z,12.07
2022-10-11T00:36:15.739Z,12.02
2022-10-11T00:38:43.757Z,13.04
2022-10-11T00:41:10.996Z,11.93
2022-10-11T00:43:38.318Z,13.16
2022-10-11T00:46:19.574Z,11.88
2022-10-11T00:48:50.997Z,11.42
2022-10-11T00:51:44.084Z,12.03
2022-10-11T00:54:15.814Z,12.10
2022-10-11T00:56:46.196Z,11.95
2022-10-11T00:59:18.519Z,13.06
2022-10-11T01:01:45.677Z,11.43
2022-10-11T01:04:13.038Z,12.05
2022-10-11T01:06:40.673Z,12.70
2022-10-11T01:09:07.891Z,12.32
2022-10-11T01:11:38.312Z,12.04
2022-10-11T01:14:14.156Z,11.90
2022-10-11T01:17:02.607Z,11.58
2022-10-11T01:19:52.925Z,12.72
2022-10-11T01:22:38.333Z,12.68
2022-10-11T01:25:31.959Z,12.62
2022-10-11T01:28:33.130Z,12.56
2022-10-11T01:31:30.371Z,12.36
2022-10-11T01:34:34.359Z,12.57
2022-10-11T01:37:23.917Z,12.47
2022-10-11T01:40:08.137Z,12.31
2022-10-11T01:42:38.857Z,11.46
2022-10-11T01:45:09.713Z,10.94
2022-10-11T01:47:36.602Z,12.11
2022-10-11T01:50:04.317Z,9.99
2022-10-11T01:52:34.814Z,11.23
2022-10-11T01:55:23.889Z,10.79
2022-10-11T01:58:11.272Z,12.14
2022-10-11T02:00:58.284Z,12.06
2022-10-11T02:03:39.046Z,12.05
2022-10-11T02:06:10.774Z,11.79
2022-10-11T02:08:55.310Z,10.23
2022-10-11T02:11:29.818Z,11.97
2022-10-11T02:14:02.655Z,12.05
2022-10-11T02:16:37.730Z,11.13
2022-10-11T02:19:07.552Z,11.09
2022-10-11T02:21:38.118Z,11.12
2022-10-11T02:24:19.246Z,11.99
2022-10-11T02:26:50.408Z,11.77
2022-10-11T02:29:18.415Z,10.16
2022-10-11T02:31:46.169Z,11.93
2022-10-11T02:34:32.038Z,11.93
2022-10-11T02:37:22.163Z,11.94
2022-10-11T02:39:55.565Z,10.63
2022-10-11T02:42:33.885Z,11.87
2022-10-11T02:45:07.822Z,11.95
2022-10-11T02:47:35.476Z,11.12
2022-10-11T02:50:03.133Z,11.94
2022-10-11T02:52:29.957Z,10.91
2022-10-11T02:54:57.152Z,10.56
2022-10-11T02:57:24.012Z,10.61
2022-10-11T02:59:50.963Z,10.66
2022-10-11T03:02:18.333Z,9.34
2022-10-11T03:04:45.590Z,10.37
2022-10-11T03:07:12.592Z,11.85
2022-10-11T03:09:39.617Z,10.65
2022-10-11T03:12:07.214Z,10.77
2022-10-11T03:14:34.537Z,10.52
2022-10-11T03:17:23.644Z,10.69
2022-10-11T03:19:48.676Z,11.45
2022-10-11T03:22:17.494Z,11.74
2022-10-11T03:24:44.231Z,11.97
2022-10-11T03:27:11.712Z,10.75
2022-10-11T03:29:38.831Z,10.98
2022-10-11T03:32:06.084Z,10.48
2022-10-11T03:34:33.151Z,10.83
2022-10-11T03:37:00.007Z,10.66
2022-10-11T03:39:26.859Z,11.76
2022-10-11T03:41:53.772Z,11.44
2022-10-11T03:44:21.028Z,11.98
2022-10-11T03:46:47.928Z,11.17
2022-10-11T03:49:14.835Z,11.82
2022-10-11T03:51:41.755Z,11.71
2022-10-11T03:54:08.562Z,11.94
2022-10-11T03:56:35.732Z,11.95
2022-10-11T03:59:02.844Z,11.98
2022-10-11T04:01:29.657Z,12.00
2022-10-11T04:03:57.772Z,11.19
2022-10-11T04:06:24.853Z,10.06
2022-10-11T04:08:51.781Z,12.14
2022-10-11T04:11:18.835Z,11.99
2022-10-11T04:13:45.750Z,12.19
2022-10-11T04:16:12.799Z,11.12
2022-10-11T04:18:39.798Z,10.86
2022-10-11T04:21:07.437Z,11.81
2022-10-11T04:23:37.399Z,10.38
2022-10-11T04:26:07.317Z,10.73
2022-10-11T04:28:35.575Z,11.47
2022-10-11T04:31:02.587Z,10.97
2022-10-11T04:33:29.605Z,12.38
2022-10-11T04:35:57.320Z,12.34
2022-10-11T04:38:24.483Z,11.14
2022-10-11T04:40:51.439Z,9.00
2022-10-11T04:43:18.532Z,11.85
2022-10-11T04:45:45.776Z,12.25
2022-10-11T04:48:12.860Z,11.35
2022-10-11T04:50:39.876Z,11.50
2022-10-11T04:53:06.649Z,11.14
2022-10-11T04:55:33.672Z,11.37
2022-10-11T04:58:00.651Z,12.17
2022-10-11T05:00:27.464Z,12.41
2022-10-11T05:02:54.400Z,10.63
2022-10-11T05:05:21.245Z,11.46
2022-10-11T05:07:48.197Z,11.35
2022-10-11T05:10:15.439Z,11.11
2022-10-11T05:12:42.537Z,12.22
2022-10-11T05:15:09.855Z,11.44
2022-10-11T05:17:36.886Z,11.22
2022-10-11T05:20:04.453Z,12.41
2022-10-11T05:22:31.259Z,10.73
2022-10-11T05:24:58.152Z,11.55
2022-10-11T05:27:25.124Z,10.39
2022-10-11T05:29:51.913Z,11.82
2022-10-11T05:32:18.931Z,11.46
2022-10-11T05:34:45.958Z,11.52
2022-10-11T05:37:12.657Z,12.94
2022-10-11T05:39:39.509Z,12.92
2022-10-11T05:42:09.743Z,11.99
2022-10-11T05:44:36.936Z,13.06
2022-10-11T05:47:04.256Z,13.21
2022-10-11T05:49:31.279Z,12.28
2022-10-11T05:51:58.122Z,13.01
2022-10-11T05:54:25.447Z,13.40
2022-10-11T05:56:52.443Z,12.60
2022-10-11T05:59:19.322Z,12.74
2022-10-11T06:01:46.366Z,13.69
2022-10-11T06:04:13.353Z,12.28
2022-10-11T06:06:40.433Z,12.17
2022-10-11T06:09:07.445Z,11.26
2022-10-11T06:11:34.451Z,12.11
2022-10-11T06:14:01.331Z,12.92
2022-10-11T06:16:28.275Z,13.81
2022-10-11T06:18:56.721Z,12.78
2022-10-11T06:21:24.352Z,13.26
2022-10-11T06:23:52.950Z,12.21
2022-10-11T06:26:21.659Z,13.43
2022-10-11T06:28:48.949Z,13.39
2022-10-11T06:31:16.055Z,13.60
2022-10-11T06:33:43.236Z,13.18
2022-10-11T06:36:12.796Z,13.19
2022-10-11T06:38:44.488Z,12.81
2022-10-11T06:41:25.140Z,11.42
2022-10-11T06:43:52.232Z,13.36
2022-10-11T06:46:20.999Z,13.34
2022-10-11T06:48:48.929Z,13.31
2022-10-11T06:51:18.137Z,13.41
2022-10-11T06:53:53.412Z,13.52
2022-10-11T06:56:20.507Z,12.68
2022-10-11T06:58:47.958Z,13.50
2022-10-11T07:01:16.627Z,13.04
2022-10-11T07:03:43.623Z,13.63
2022-10-11T07:06:13.153Z,13.63
2022-10-11T07:08:40.592Z,12.45
2022-10-11T07:11:11.811Z,13.65
2022-10-11T07:13:39.758Z,13.48
2022-10-11T07:16:10.883Z,13.60
2022-10-11T07:18:38.340Z,13.56
2022-10-11T07:21:12.088Z,12.66
2022-10-11T07:23:39.640Z,12.77
2022-10-11T07:26:08.087Z,13.42
2022-10-11T07:28:36.968Z,12.48
2022-10-11T07:31:07.090Z,13.35
2022-10-11T07:33:34.339Z,13.58
2022-10-11T07:36:01.945Z,13.68
2022-10-11T07:38:28.956Z,13.69
2022-10-11T07:40:55.881Z,12.43
2022-10-11T07:43:23.176Z,13.37
2022-10-11T07:45:52.434Z,13.50
2022-10-11T07:48:20.833Z,12.80
2022-10-11T07:50:48.162Z,12.72
2022-10-11T07:53:15.090Z,13.74
2022-10-11T07:55:41.957Z,12.57
2022-10-11T07:58:10.194Z,12.43
2022-10-11T08:00:37.652Z,13.22
2022-10-11T08:03:06.269Z,13.00
2022-10-11T08:05:34.227Z,13.98
2022-10-11T08:08:01.362Z,13.00
2022-10-11T08:10:28.176Z,13.25
2022-10-11T08:12:55.429Z,12.42
2022-10-11T08:15:22.457Z,13.27
2022-10-11T08:17:49.361Z,14.47
2022-10-11T08:20:16.493Z,14.46
2022-10-11T08:22:43.346Z,14.51
2022-10-11T08:25:10.315Z,13.51
2022-10-11T08:27:37.516Z,14.45
2022-10-11T08:30:05.638Z,13.80
2022-10-11T08:32:32.500Z,14.07
2022-10-11T08:34:59.758Z,13.45
2022-10-11T08:37:26.649Z,14.79
2022-10-11T08:39:53.643Z,14.79
2022-10-11T08:42:36.829Z,14.87
2022-10-11T08:45:12.089Z,14.94
2022-10-11T08:47:43.198Z,14.93
2022-10-11T08:50:19.619Z,14.91
2022-10-11T08:52:52.763Z,14.80
2022-10-11T08:55:24.757Z,13.78
2022-10-11T08:57:54.894Z,13.74
2022-10-11T09:00:23.449Z,14.54
2022-10-11T09:03:29.916Z,14.78
2022-10-11T09:06:18.282Z,14.74
2022-10-11T09:09:06.641Z,14.75
2022-10-11T09:11:52.273Z,14.79
2022-10-11T09:14:39.935Z,14.86
2022-10-11T09:17:34.054Z,13.09
2022-10-11T09:20:34.535Z,14.70
2022-10-11T09:23:13.484Z,15.01
2022-10-11T09:25:47.247Z,13.86
2022-10-11T09:28:35.485Z,15.02
2022-10-11T09:31:02.964Z,12.96
2022-10-11T09:33:32.913Z,15.31
2022-10-11T09:36:01.234Z,14.25
2022-10-11T09:39:15.412Z,15.56
2022-10-11T09:41:56.488Z,14.94
2022-10-11T09:44:27.118Z,15.09
2022-10-11T09:46:56.818Z,15.07
2022-10-11T09:49:31.655Z,14.86
2022-10-11T09:52:02.462Z,14.82
2022-10-11T09:54:47.984Z,14.89
2022-10-11T09:57:27.077Z,14.90
2022-10-11T10:00:01.610Z,16.11
2022-10-11T10:02:29.969Z,14.95
2022-10-11T10:04:58.484Z,16.98
2022-10-11T10:07:26.138Z,16.27
2022-10-11T10:09:53.352Z,16.78
2022-10-11T10:12:24.114Z,17.34
2022-10-11T10:15:19.168Z,17.56
2022-10-11T10:17:50.762Z,17.50
2022-10-11T10:20:25.444Z,17.60
2022-10-11T10:22:53.402Z,17.71
2022-10-11T10:25:33.200Z,16.51
2022-10-11T10:28:02.951Z,16.68
2022-10-11T10:30:35.247Z,17.88
2022-10-11T10:33:07.158Z,17.90
2022-10-11T10:35:49.286Z,17.98
2022-10-11T10:38:27.731Z,16.73
2022-10-11T10:41:01.356Z,17.72
2022-10-11T10:43:34.006Z,18.00
2022-10-11T10:46:18.686Z,18.16
2022-10-11T10:52:41.099Z,18.30
2022-10-11T10:55:13.803Z,18.80
2022-10-11T10:57:58.755Z,18.48
2022-10-11T11:01:00.123Z,18.53
2022-10-11T11:03:37.298Z,17.75
2022-10-11T11:06:13.341Z,17.76
2022-10-11T11:09:18.850Z,18.60
2022-10-11T11:11:52.682Z,19.01
2022-10-11T11:14:25.251Z,18.74
2022-10-11T11:17:17.441Z,18.83
2022-10-11T11:19:56.157Z,18.55
2022-10-11T11:22:57.444Z,18.51
2022-10-11T11:26:01.397Z,18.63
2022-10-11T11:28:43.502Z,18.44
2022-10-11T11:31:37.844Z,18.27
2022-10-11T11:34:22.285Z,18.47
2022-10-11T11:37:02.152Z,18.13
2022-10-11T11:39:40.188Z,17.33
2022-10-11T11:42:14.040Z,17.38
2022-10-11T11:44:46.191Z,17.93
2022-10-11T11:47:33.077Z,17.09
2022-10-11T11:50:17.779Z,17.76
2022-10-11T11:52:48.596Z,16.97
2022-10-11T11:55:43.052Z,17.80
2022-10-11T11:58:27.935Z,17.80
2022-10-11T12:01:26.480Z,16.74
2022-10-11T12:04:03.160Z,17.59
2022-10-11T12:06:37.920Z,17.73
2022-10-11T12:09:31.080Z,17.81
2022-10-11T12:12:04.040Z,16.69
2022-10-11T12:14:33.687Z,17.63
2022-10-11T12:17:14.478Z,17.75
2022-10-11T12:19:44.559Z,17.46
2022-10-11T12:22:28.600Z,17.53
2022-10-11T12:25:28.295Z,17.45
2022-10-11T12:27:57.602Z,17.36
2022-10-11T12:30:44.605Z,17.29
2022-10-11T12:33:23.882Z,17.15
2022-10-11T12:35:53.818Z,17.17
2022-10-11T12:38:35.972Z,17.31
2022-10-11T12:41:11.371Z,17.33
2022-10-11T12:43:50.558Z,17.32
2022-10-11T12:46:29.156Z,17.21
2022-10-11T12:49:20.198Z,15.47
2022-10-11T12:52:01.716Z,17.10
2022-10-11T12:54:55.717Z,16.97
2022-10-11T12:57:22.439Z,16.95
2022-10-11T12:59:49.950Z,15.97
2022-10-11T13:02:41.881Z,16.83
2022-10-11T13:05:32.089Z,16.88
2022-10-11T13:08:04.043Z,16.84
2022-10-11T13:10:46.204Z,16.77
2022-10-11T13:13:27.253Z,15.87
2022-10-11T13:15:57.496Z,16.76
2022-10-11T13:18:26.417Z,16.24
2022-10-11T13:20:53.731Z,15.78
2022-10-11T13:23:25.810Z,16.39
2022-10-11T13:25:54.155Z,16.67
2022-10-11T13:28:22.416Z,16.21
2022-10-11T13:31:00.447Z,16.41
2022-10-11T13:33:31.756Z,16.78
2022-10-11T13:36:04.924Z,15.55
2022-10-11T13:38:35.478Z,15.89
2022-10-11T13:41:05.318Z,15.41
2022-10-11T13:43:32.791Z,16.67
2022-10-11T13:46:02.106Z,16.74
2022-10-11T13:48:31.946Z,15.57
2022-10-11T13:51:28.312Z,16.57
2022-10-11T13:54:08.459Z,15.62
2022-10-11T13:56:50.402Z,16.46
2022-10-11T13:59:23.760Z,16.75
2022-10-11T14:01:58.031Z,15.75
2022-10-11T14:04:29.474Z,16.08
2022-10-11T14:07:01.276Z,16.83
2022-10-11T14:09:31.561Z,16.69
2022-10-11T14:12:28.917Z,16.65
2022-10-11T14:14:55.712Z,15.12
2022-10-11T14:17:36.324Z,15.73
2022-10-11T14:20:12.076Z,14.98
2022-10-11T14:22:39.727Z,16.29
2022-10-11T14:25:06.882Z,14.94
2022-10-11T14:27:33.915Z,15.06
2022-10-11T14:30:24.014Z,16.22
2022-10-11T14:32:50.216Z,16.25
2022-10-11T14:35:26.515Z,16.19
2022-10-11T14:37:54.435Z,16.18
2022-10-11T14:40:27.377Z,16.12
2022-10-11T14:42:54.801Z,16.08
2022-10-11T14:45:21.853Z,16.06
2022-10-11T14:47:49.897Z,16.05
2022-10-11T14:50:27.455Z,15.83
2022-10-11T14:52:55.134Z,15.03
2022-10-11T14:55:22.593Z,15.11
2022-10-11T14:57:49.765Z,15.06
2022-10-11T15:00:19.930Z,15.00
2022-10-11T15:02:47.245Z,14.62
2022-10-11T15:05:14.579Z,15.04
2022-10-11T15:07:41.809Z,14.90
2022-10-11T15:10:22.492Z,14.42
2022-10-11T15:12:51.434Z,14.68
2022-10-11T15:15:20.154Z,15.77
2022-10-11T15:17:54.277Z,14.79
2022-10-11T15:20:34.165Z,15.40
2022-10-11T15:23:02.018Z,15.32
2022-10-11T15:25:29.594Z,15.34
2022-10-11T15:27:57.274Z,15.53
2022-10-11T15:30:28.256Z,14.53
2022-10-11T15:32:55.198Z,14.35
2022-10-11T15:35:23.569Z,15.19
2022-10-11T15:37:55.844Z,15.16
2022-10-11T15:40:31.434Z,15.05
2022-10-11T15:42:58.713Z,14.74
2022-10-11T15:45:26.235Z,14.67
2022-10-11T15:47:53.294Z,14.56
2022-10-11T15:50:20.249Z,15.33
2022-10-11T15:52:47.120Z,14.97
2022-10-11T15:55:13.871Z,13.78
2022-10-11T15:57:41.216Z,15.01
2022-10-11T16:00:08.671Z,13.65
2022-10-11T16:02:35.725Z,15.01
2022-10-11T16:05:03.337Z,14.71
2022-10-11T16:07:30.166Z,14.78
2022-10-11T16:09:59.044Z,13.63
2022-10-11T16:12:26.316Z,14.24
2022-10-11T16:14:53.557Z,14.03
2022-10-11T16:17:20.496Z,14.06
2022-10-11T16:19:47.592Z,13.47
2022-10-11T16:22:14.413Z,14.88
2022-10-11T16:24:41.156Z,14.71
2022-10-11T16:27:08.115Z,14.12
2022-10-11T16:29:35.080Z,14.83
2022-10-11T16:32:02.099Z,14.22
2022-10-11T16:34:29.081Z,14.67
2022-10-11T16:36:56.036Z,14.97
2022-10-11T16:39:22.824Z,13.77
2022-10-11T16:41:50.151Z,13.69
2022-10-11T16:44:19.634Z,14.70
2022-10-11T16:46:48.095Z,14.70
2022-10-11T16:49:16.758Z,14.26
2022-10-11T16:51:43.728Z,14.63
2022-10-11T16:54:10.608Z,14.32
2022-10-11T16:56:40.034Z,14.56
2022-10-11T16:59:07.534Z,13.08
2022-10-11T17:01:34.489Z,13.61
2022-10-11T17:04:01.874Z,13.88
2022-10-11T17:06:28.710Z,13.35
2022-10-11T17:08:55.691Z,13.27
2022-10-11T17:11:23.232Z,13.87
2022-10-11T17:13:52.258Z,14.35
2022-10-11T17:16:20.444Z,14.25
2022-10-11T17:18:47.767Z,13.62
2022-10-11T17:21:24.338Z,14.21
2022-10-11T17:23:57.992Z,14.24
2022-10-11T17:26:27.057Z,14.24
2022-10-11T17:28:56.235Z,14.20
2022-10-11T17:31:24.609Z,13.79
2022-10-11T17:33:51.719Z,12.89
2022-10-11T17:36:26.773Z,13.24
2022-10-11T17:38:54.572Z,13.27
2022-10-11T17:41:21.565Z,13.98
2022-10-11T17:43:48.724Z,13.97
2022-10-11T17:46:17.757Z,13.96
2022-10-11T17:48:44.661Z,12.68
2022-10-11T17:51:17.408Z,13.91
2022-10-11T17:53:45.205Z,12.31
2022-10-11T17:56:15.114Z,13.81
2022-10-11T17:58:42.596Z,13.27
2022-10-11T18:01:12.928Z,12.82
2022-10-11T18:03:40.317Z,13.70
2022-10-11T18:06:09.363Z,13.65
2022-10-11T18:08:40.569Z,11.45
2022-10-11T18:11:14.376Z,12.35
2022-10-11T18:13:42.169Z,13.56
2022-10-11T18:16:10.104Z,13.59
2022-10-11T18:18:42.609Z,13.00
2022-10-11T18:21:10.471Z,13.50
2022-10-11T18:23:37.449Z,11.86
2022-10-11T18:26:11.861Z,13.07
2022-10-11T18:28:39.637Z,13.42
2022-10-11T18:31:12.992Z,13.42
2022-10-11T18:33:41.923Z,12.18
2022-10-11T18:36:09.994Z,13.13
2022-10-11T18:38:36.924Z,12.19
2022-10-11T18:41:09.543Z,12.54
2022-10-11T18:43:37.689Z,13.33
2022-10-11T18:46:13.956Z,13.52
2022-10-11T18:48:42.296Z,12.43
2022-10-11T18:51:12.601Z,12.80
2022-10-11T18:53:39.632Z,13.34
2022-10-11T18:56:09.890Z,12.36
2022-10-11T18:58:37.636Z,13.42
2022-10-11T19:01:09.511Z,13.45
2022-10-11T19:03:37.234Z,11.82
2022-10-11T19:06:09.338Z,13.29
2022-10-11T19:08:36.920Z,11.97
2022-10-11T19:11:08.516Z,13.24
2022-10-11T19:13:36.394Z,12.39
2022-10-11T19:16:08.468Z,13.32
2022-10-11T19:18:40.431Z,12.89
2022-10-11T19:21:12.453Z,13.26
2022-10-11T19:23:41.899Z,13.23
2022-10-11T19:26:21.000Z,12.86
2022-10-11T19:28:53.800Z,13.24
2022-10-11T19:31:20.843Z,13.05
2022-10-11T19:33:47.806Z,13.19
2022-10-11T19:36:14.964Z,13.38
2022-10-11T19:38:46.916Z,13.39
2022-10-11T19:41:14.954Z,13.37
2022-10-11T19:43:41.974Z,12.14
2022-10-11T19:46:11.234Z,13.35
2022-10-11T19:48:39.335Z,13.34
2022-10-11T19:51:12.034Z,13.37
2022-10-11T19:53:39.196Z,13.36
2022-10-11T19:56:08.775Z,13.35
2022-10-11T19:58:35.939Z,12.51
2022-10-11T20:01:08.476Z,12.19
2022-10-11T20:03:36.114Z,13.36
2022-10-11T20:06:06.007Z,13.32
2022-10-11T20:08:33.959Z,13.32
2022-10-11T20:11:03.390Z,13.36
2022-10-11T20:13:34.722Z,13.35
2022-10-11T20:16:07.036Z,13.39
2022-10-11T20:18:34.299Z,13.40
2022-10-11T20:21:04.078Z,13.50
2022-10-11T20:23:33.030Z,12.60
2022-10-11T20:26:07.960Z,13.68
2022-10-11T20:28:36.078Z,13.70
2022-10-11T20:31:04.874Z,13.57
2022-10-11T20:33:32.672Z,13.48
2022-10-11T20:36:05.410Z,13.33
2022-10-11T20:38:33.690Z,12.80
2022-10-11T20:41:04.837Z,13.35
2022-10-11T20:43:31.821Z,13.41
2022-10-11T20:46:02.878Z,13.23
2022-10-11T20:48:30.578Z,11.47
2022-10-11T20:50:58.008Z,12.45
2022-10-11T20:53:25.692Z,13.07
2022-10-11T20:55:53.367Z,13.31
2022-10-11T20:58:21.357Z,13.09
2022-10-11T21:00:49.076Z,13.07
2022-10-11T21:03:16.937Z,12.82
2022-10-11T21:05:44.209Z,12.27
2022-10-11T21:08:11.471Z,11.25
2022-10-11T21:10:38.811Z,12.10
2022-10-11T21:13:06.238Z,13.21
2022-10-11T21:15:33.351Z,11.47
2022-10-11T21:18:00.076Z,13.23
2022-10-11T21:20:27.116Z,13.17
2022-10-11T21:22:53.853Z,12.36
2022-10-11T21:25:20.895Z,11.44
2022-10-11T21:27:47.888Z,13.02
2022-10-11T21:30:14.837Z,12.03
2022-10-11T21:32:41.836Z,12.80
2022-10-11T21:35:09.799Z,12.09
2022-10-11T21:37:37.002Z,12.32
2022-10-11T21:40:04.596Z,12.10
2022-10-11T21:42:31.602Z,11.98
2022-10-11T21:44:58.358Z,12.97
2022-10-11T21:47:25.129Z,13.26
2022-10-11T21:49:52.374Z,13.29
2022-10-11T21:52:19.615Z,12.35
2022-10-11T21:54:46.516Z,12.26
2022-10-11T21:57:13.720Z,11.90
2022-10-11T21:59:40.517Z,12.05
2022-10-11T22:02:07.461Z,12.25
2022-10-11T22:04:34.494Z,12.06
2022-10-11T22:07:01.766Z,12.54
2022-10-11T22:09:28.798Z,12.85
2022-10-11T22:11:57.017Z,13.15
2022-10-11T22:14:24.551Z,13.17
2022-10-11T22:16:51.413Z,11.16
2022-10-11T22:19:18.236Z,13.00
2022-10-11T22:21:45.518Z,12.40
2022-10-11T22:24:12.798Z,12.01
2022-10-11T22:26:39.713Z,12.97
2022-10-11T22:29:06.689Z,12.16
2022-10-11T22:31:35.483Z,12.00
2022-10-11T22:34:02.641Z,12.63
2022-10-11T22:36:30.129Z,12.79
2022-10-11T22:38:57.511Z,12.72
2022-10-11T22:41:24.437Z,11.72
2022-10-11T22:43:51.837Z,10.76
2022-10-11T22:46:19.012Z,12.73
2022-10-11T22:48:46.120Z,12.70
2022-10-11T22:51:13.040Z,12.68
2022-10-11T22:53:39.788Z,12.65
2022-10-11T22:56:07.088Z,11.43
2022-10-11T22:58:34.570Z,10.18
2022-10-11T23:01:13.994Z,12.86
2022-10-11T23:03:41.092Z,11.23
2022-10-11T23:06:08.461Z,12.13
2022-10-11T23:08:35.593Z,12.78
2022-10-11T23:11:06.662Z,12.10
2022-10-11T23:13:33.703Z,12.09
2022-10-11T23:16:09.472Z,11.02
2022-10-11T23:18:36.459Z,12.76
2022-10-11T23:21:04.299Z,12.57
2022-10-11T23:23:31.508Z,11.43
2022-10-11T23:26:03.085Z,11.69
2022-10-11T23:28:29.956Z,12.66
2022-10-11T23:30:56.994Z,11.82
2022-10-11T23:33:24.212Z,12.62
2022-10-11T23:35:51.207Z,11.58
2022-10-11T23:38:18.440Z,11.86
2022-10-11T23:40:45.243Z,11.47
2022-10-11T23:43:12.147Z,11.60
2022-10-11T23:45:39.101Z,12.53
2022-10-11T23:48:06.129Z,11.67
2022-10-11T23:50:32.919Z,12.44
2022-10-11T23:53:00.086Z,11.68
2022-10-11T23:55:26.873Z,11.42
2022-10-11T23:57:53.929Z,12.53
